sensor_id;sensor_type;location;lat;lon;timestamp;temperature;humidity
7194;DHT22;3638;48.820;9.244;2023-06-19T00:02:32;24.60;72.70
7194;DHT22;3638;48.820;9.244;2023-06-19T00:04:59;24.50;72.60
7194;DHT22;3638;48.820;9.244;2023-06-19T00:07:26;24.50;72.60
7194;DHT22;3638;48.820;9.244;2023-06-19T00:14:49;24.40;73.10
7194;DHT22;3638;48.820;9.244;2023-06-19T00:17:16;24.40;73.00
7194;DHT22;3638;48.820;9.244;2023-06-19T00:24:37;24.30;73.40
7194;DHT22;3638;48.820;9.244;2023-06-19T00:27:05;24.40;73.60
7194;DHT22;3638;48.820;9.244;2023-06-19T00:29:32;24.40;73.50
7194;DHT22;3638;48.820;9.244;2023-06-19T00:32:01;24.40;73.40
7194;DHT22;3638;48.820;9.244;2023-06-19T00:34:29;24.40;73.30
7194;DHT22;3638;48.820;9.244;2023-06-19T00:36:57;24.50;73.60
7194;DHT22;3638;48.820;9.244;2023-06-19T00:41:53;24.60;73.20
7194;DHT22;3638;48.820;9.244;2023-06-19T00:44:20;24.10;73.00
7194;DHT22;3638;48.820;9.244;2023-06-19T00:46:50;24.60;73.40
7194;DHT22;3638;48.820;9.244;2023-06-19T00:49:21;24.60;73.70
7194;DHT22;3638;48.820;9.244;2023-06-19T00:56:43;24.60;73.40
7194;DHT22;3638;48.820;9.244;2023-06-19T00:59:14;24.60;73.60
7194;DHT22;3638;48.820;9.244;2023-06-19T01:01:42;24.60;73.50
7194;DHT22;3638;48.820;9.244;2023-06-19T01:06:43;24.60;73.20
7194;DHT22;3638;48.820;9.244;2023-06-19T01:09:15;24.60;73.30
7194;DHT22;3638;48.820;9.244;2023-06-19T01:11:48;24.70;73.30
7194;DHT22;3638;48.820;9.244;2023-06-19T01:14:18;24.60;73.40
7194;DHT22;3638;48.820;9.244;2023-06-19T01:19:18;24.50;73.80
7194;DHT22;3638;48.820;9.244;2023-06-19T01:21:48;24.50;73.40
7194;DHT22;3638;48.820;9.244;2023-06-19T01:24:17;24.60;73.50
7194;DHT22;3638;48.820;9.244;2023-06-19T01:29:12;24.50;73.40
7194;DHT22;3638;48.820;9.244;2023-06-19T01:31:45;24.50;73.50
7194;DHT22;3638;48.820;9.244;2023-06-19T01:34:15;24.40;73.80
7194;DHT22;3638;48.820;9.244;2023-06-19T01:36:46;24.30;74.40
7194;DHT22;3638;48.820;9.244;2023-06-19T01:39:16;24.30;74.80
7194;DHT22;3638;48.820;9.244;2023-06-19T01:41:44;24.10;75.20
7194;DHT22;3638;48.820;9.244;2023-06-19T01:44:12;24.10;75.80
7194;DHT22;3638;48.820;9.244;2023-06-19T01:46:39;24.00;76.50
7194;DHT22;3638;48.820;9.244;2023-06-19T01:49:07;23.90;76.90
7194;DHT22;3638;48.820;9.244;2023-06-19T01:54:02;23.80;77.50
7194;DHT22;3638;48.820;9.244;2023-06-19T01:56:31;23.80;77.30
7194;DHT22;3638;48.820;9.244;2023-06-19T01:58:58;23.80;77.80
7194;DHT22;3638;48.820;9.244;2023-06-19T02:01:25;23.80;78.00
7194;DHT22;3638;48.820;9.244;2023-06-19T02:03:52;23.80;78.10
7194;DHT22;3638;48.820;9.244;2023-06-19T02:06:18;23.80;78.80
7194;DHT22;3638;48.820;9.244;2023-06-19T02:08:46;23.70;79.00
7194;DHT22;3638;48.820;9.244;2023-06-19T02:11:13;23.70;78.90
7194;DHT22;3638;48.820;9.244;2023-06-19T02:13:42;23.60;79.60
7194;DHT22;3638;48.820;9.244;2023-06-19T02:16:09;23.60;80.30
7194;DHT22;3638;48.820;9.244;2023-06-19T02:18:36;23.60;80.40
7194;DHT22;3638;48.820;9.244;2023-06-19T02:21:02;23.50;80.40
7194;DHT22;3638;48.820;9.244;2023-06-19T02:25:56;23.60;80.80
7194;DHT22;3638;48.820;9.244;2023-06-19T02:28:23;23.60;81.10
7194;DHT22;3638;48.820;9.244;2023-06-19T02:30:53;23.70;81.00
7194;DHT22;3638;48.820;9.244;2023-06-19T02:33:20;23.60;81.50
7194;DHT22;3638;48.820;9.244;2023-06-19T02:35:48;23.50;81.70
7194;DHT22;3638;48.820;9.244;2023-06-19T02:38:15;22.80;82.00
7194;DHT22;3638;48.820;9.244;2023-06-19T02:40:44;23.30;82.70
7194;DHT22;3638;48.820;9.244;2023-06-19T02:43:10;23.30;83.10
7194;DHT22;3638;48.820;9.244;2023-06-19T02:45:37;23.40;83.30
7194;DHT22;3638;48.820;9.244;2023-06-19T02:48:05;23.20;83.90
7194;DHT22;3638;48.820;9.244;2023-06-19T02:50:32;23.20;84.20
7194;DHT22;3638;48.820;9.244;2023-06-19T02:52:59;23.10;84.70
7194;DHT22;3638;48.820;9.244;2023-06-19T02:55:26;23.10;85.10
7194;DHT22;3638;48.820;9.244;2023-06-19T02:57:53;23.10;85.70
7194;DHT22;3638;48.820;9.244;2023-06-19T03:00:20;23.10;85.50
7194;DHT22;3638;48.820;9.244;2023-06-19T03:02:47;23.10;86.00
7194;DHT22;3638;48.820;9.244;2023-06-19T03:05:15;23.20;85.60
7194;DHT22;3638;48.820;9.244;2023-06-19T03:07:42;23.20;86.10
7194;DHT22;3638;48.820;9.244;2023-06-19T03:10:09;23.10;87.70
7194;DHT22;3638;48.820;9.244;2023-06-19T03:12:36;23.00;87.70
7194;DHT22;3638;48.820;9.244;2023-06-19T03:15:04;23.00;87.60
7194;DHT22;3638;48.820;9.244;2023-06-19T03:17:31;22.90;87.70
7194;DHT22;3638;48.820;9.244;2023-06-19T03:19:58;23.00;87.40
7194;DHT22;3638;48.820;9.244;2023-06-19T03:22:26;22.90;87.40
7194;DHT22;3638;48.820;9.244;2023-06-19T03:24:53;23.00;87.50
7194;DHT22;3638;48.820;9.244;2023-06-19T03:29:47;22.90;87.70
7194;DHT22;3638;48.820;9.244;2023-06-19T03:32:14;22.90;88.70
7194;DHT22;3638;48.820;9.244;2023-06-19T03:34:40;22.80;90.20
7194;DHT22;3638;48.820;9.244;2023-06-19T03:37:07;22.80;90.20
7194;DHT22;3638;48.820;9.244;2023-06-19T03:39:35;22.70;90.30
7194;DHT22;3638;48.820;9.244;2023-06-19T03:42:02;22.70;90.00
7194;DHT22;3638;48.820;9.244;2023-06-19T03:44:30;22.70;90.10
7194;DHT22;3638;48.820;9.244;2023-06-19T03:46:57;22.70;90.20
7194;DHT22;3638;48.820;9.244;2023-06-19T03:49:23;22.80;90.00
7194;DHT22;3638;48.820;9.244;2023-06-19T03:51:51;22.80;90.20
7194;DHT22;3638;48.820;9.244;2023-06-19T03:54:19;22.70;90.40
7194;DHT22;3638;48.820;9.244;2023-06-19T03:56:48;22.70;90.60
7194;DHT22;3638;48.820;9.244;2023-06-19T03:59:15;22.70;90.30
7194;DHT22;3638;48.820;9.244;2023-06-19T04:04:09;22.60;90.40
7194;DHT22;3638;48.820;9.244;2023-06-19T04:06:35;22.60;90.70
7194;DHT22;3638;48.820;9.244;2023-06-19T04:09:02;22.60;90.80
7194;DHT22;3638;48.820;9.244;2023-06-19T04:11:30;22.60;90.90
7194;DHT22;3638;48.820;9.244;2023-06-19T04:13:58;22.70;90.90
7194;DHT22;3638;48.820;9.244;2023-06-19T04:16:25;22.70;90.80
7194;DHT22;3638;48.820;9.244;2023-06-19T04:18:51;22.70;91.10
7194;DHT22;3638;48.820;9.244;2023-06-19T04:21:18;22.60;91.10
7194;DHT22;3638;48.820;9.244;2023-06-19T04:23:45;22.70;91.30
7194;DHT22;3638;48.820;9.244;2023-06-19T04:26:12;22.80;91.20
7194;DHT22;3638;48.820;9.244;2023-06-19T04:28:39;22.70;91.60
7194;DHT22;3638;48.820;9.244;2023-06-19T04:31:08;22.60;91.60
7194;DHT22;3638;48.820;9.244;2023-06-19T04:33:35;22.60;92.00
7194;DHT22;3638;48.820;9.244;2023-06-19T04:36:02;22.60;92.20
7194;DHT22;3638;48.820;9.244;2023-06-19T04:38:29;22.60;92.40
7194;DHT22;3638;48.820;9.244;2023-06-19T04:43:23;22.50;92.70
7194;DHT22;3638;48.820;9.244;2023-06-19T04:45:51;22.40;93.20
7194;DHT22;3638;48.820;9.244;2023-06-19T04:48:19;22.40;93.50
7194;DHT22;3638;48.820;9.244;2023-06-19T04:50:51;22.60;93.40
7194;DHT22;3638;48.820;9.244;2023-06-19T04:53:20;22.60;93.60
7194;DHT22;3638;48.820;9.244;2023-06-19T04:55:46;22.60;93.60
7194;DHT22;3638;48.820;9.244;2023-06-19T04:58:15;22.80;93.50
7194;DHT22;3638;48.820;9.244;2023-06-19T05:00:41;22.90;93.70
7194;DHT22;3638;48.820;9.244;2023-06-19T05:03:08;23.30;93.20
7194;DHT22;3638;48.820;9.244;2023-06-19T05:05:40;23.70;92.50
7194;DHT22;3638;48.820;9.244;2023-06-19T05:08:07;23.60;92.50
7194;DHT22;3638;48.820;9.244;2023-06-19T05:10:34;23.40;92.70
7194;DHT22;3638;48.820;9.244;2023-06-19T05:13:01;23.50;92.70
7194;DHT22;3638;48.820;9.244;2023-06-19T05:15:28;23.70;92.30
7194;DHT22;3638;48.820;9.244;2023-06-19T05:17:55;24.00;92.20
7194;DHT22;3638;48.820;9.244;2023-06-19T05:20:22;24.10;91.90
7194;DHT22;3638;48.820;9.244;2023-06-19T05:22:50;24.20;92.40
7194;DHT22;3638;48.820;9.244;2023-06-19T05:25:17;24.50;91.90
7194;DHT22;3638;48.820;9.244;2023-06-19T05:30:12;24.60;91.00
7194;DHT22;3638;48.820;9.244;2023-06-19T05:32:39;24.20;91.50
7194;DHT22;3638;48.820;9.244;2023-06-19T05:35:06;24.50;91.50
7194;DHT22;3638;48.820;9.244;2023-06-19T05:37:33;24.20;91.90
7194;DHT22;3638;48.820;9.244;2023-06-19T05:40:02;24.30;91.70
7194;DHT22;3638;48.820;9.244;2023-06-19T05:42:29;24.20;91.80
7194;DHT22;3638;48.820;9.244;2023-06-19T05:44:56;24.00;92.50
7194;DHT22;3638;48.820;9.244;2023-06-19T05:47:22;23.80;92.90
7194;DHT22;3638;48.820;9.244;2023-06-19T05:49:51;23.70;93.00
7194;DHT22;3638;48.820;9.244;2023-06-19T05:52:18;23.70;93.00
7194;DHT22;3638;48.820;9.244;2023-06-19T05:54:44;23.70;93.40
7194;DHT22;3638;48.820;9.244;2023-06-19T05:57:13;24.10;92.50
7194;DHT22;3638;48.820;9.244;2023-06-19T05:59:41;24.40;92.40
7194;DHT22;3638;48.820;9.244;2023-06-19T06:02:08;24.40;92.40
7194;DHT22;3638;48.820;9.244;2023-06-19T06:04:35;24.30;92.50
7194;DHT22;3638;48.820;9.244;2023-06-19T06:07:02;24.30;92.70
7194;DHT22;3638;48.820;9.244;2023-06-19T06:09:29;24.40;92.70
7194;DHT22;3638;48.820;9.244;2023-06-19T06:11:56;24.50;92.60
7194;DHT22;3638;48.820;9.244;2023-06-19T06:14:25;24.40;93.00
7194;DHT22;3638;48.820;9.244;2023-06-19T06:16:52;24.50;92.50
7194;DHT22;3638;48.820;9.244;2023-06-19T06:19:19;24.50;93.00
7194;DHT22;3638;48.820;9.244;2023-06-19T06:21:48;24.80;92.50
7194;DHT22;3638;48.820;9.244;2023-06-19T06:24:15;24.80;93.00
7194;DHT22;3638;48.820;9.244;2023-06-19T06:26:42;25.40;91.50
7194;DHT22;3638;48.820;9.244;2023-06-19T06:29:08;25.40;91.90
7194;DHT22;3638;48.820;9.244;2023-06-19T06:31:38;25.90;90.70
7194;DHT22;3638;48.820;9.244;2023-06-19T06:34:05;26.00;90.70
7194;DHT22;3638;48.820;9.244;2023-06-19T06:36:31;26.00;91.20
7194;DHT22;3638;48.820;9.244;2023-06-19T06:38:58;26.00;90.80
7194;DHT22;3638;48.820;9.244;2023-06-19T06:41:25;26.20;90.70
7194;DHT22;3638;48.820;9.244;2023-06-19T06:43:52;26.20;90.90
7194;DHT22;3638;48.820;9.244;2023-06-19T06:46:20;26.10;91.00
7194;DHT22;3638;48.820;9.244;2023-06-19T06:48:49;26.70;89.40
7194;DHT22;3638;48.820;9.244;2023-06-19T06:51:16;27.00;88.70
7194;DHT22;3638;48.820;9.244;2023-06-19T06:53:43;27.00;87.40
7194;DHT22;3638;48.820;9.244;2023-06-19T06:56:10;27.20;87.20
7194;DHT22;3638;48.820;9.244;2023-06-19T06:58:37;27.20;88.60
7194;DHT22;3638;48.820;9.244;2023-06-19T07:01:04;27.50;85.80
7194;DHT22;3638;48.820;9.244;2023-06-19T07:03:31;27.40;86.30
7194;DHT22;3638;48.820;9.244;2023-06-19T07:05:59;28.10;84.20
7194;DHT22;3638;48.820;9.244;2023-06-19T07:08:26;28.20;83.00
7194;DHT22;3638;48.820;9.244;2023-06-19T07:10:53;28.20;80.90
7194;DHT22;3638;48.820;9.244;2023-06-19T07:13:20;28.20;81.50
7194;DHT22;3638;48.820;9.244;2023-06-19T07:15:47;27.70;82.90
7194;DHT22;3638;48.820;9.244;2023-06-19T07:18:14;27.40;83.80
7194;DHT22;3638;48.820;9.244;2023-06-19T07:20:41;26.90;84.40
7194;DHT22;3638;48.820;9.244;2023-06-19T07:23:09;26.80;84.30
7194;DHT22;3638;48.820;9.244;2023-06-19T07:25:37;26.80;85.00
7194;DHT22;3638;48.820;9.244;2023-06-19T07:28:04;26.10;85.00
7194;DHT22;3638;48.820;9.244;2023-06-19T07:30:31;26.60;85.90
7194;DHT22;3638;48.820;9.244;2023-06-19T07:32:57;26.80;85.80
7194;DHT22;3638;48.820;9.244;2023-06-19T07:35:24;31.20;89.10
7194;DHT22;3638;48.820;9.244;2023-06-19T07:37:51;26.70;86.10
7194;DHT22;3638;48.820;9.244;2023-06-19T07:40:19;26.80;84.60
7194;DHT22;3638;48.820;9.244;2023-06-19T07:42:46;26.70;84.40
7194;DHT22;3638;48.820;9.244;2023-06-19T07:45:13;27.00;84.70
7194;DHT22;3638;48.820;9.244;2023-06-19T07:47:40;27.10;83.80
7194;DHT22;3638;48.820;9.244;2023-06-19T07:50:07;27.20;83.70
7194;DHT22;3638;48.820;9.244;2023-06-19T07:52:35;27.20;83.30
7194;DHT22;3638;48.820;9.244;2023-06-19T07:55:02;27.60;84.00
7194;DHT22;3638;48.820;9.244;2023-06-19T07:57:31;27.80;83.10
7194;DHT22;3638;48.820;9.244;2023-06-19T07:59:58;27.90;81.30
7194;DHT22;3638;48.820;9.244;2023-06-19T08:02:24;27.90;80.50
7194;DHT22;3638;48.820;9.244;2023-06-19T08:04:52;28.00;82.80
7194;DHT22;3638;48.820;9.244;2023-06-19T08:07:19;28.00;81.10
7194;DHT22;3638;48.820;9.244;2023-06-19T08:09:46;27.60;81.10
7194;DHT22;3638;48.820;9.244;2023-06-19T08:12:14;27.60;80.70
7194;DHT22;3638;48.820;9.244;2023-06-19T08:14:42;28.00;81.60
7194;DHT22;3638;48.820;9.244;2023-06-19T08:17:09;28.10;81.30
7194;DHT22;3638;48.820;9.244;2023-06-19T08:19:35;28.30;79.60
7194;DHT22;3638;48.820;9.244;2023-06-19T08:22:04;28.50;77.80
7194;DHT22;3638;48.820;9.244;2023-06-19T08:24:31;28.40;77.70
7194;DHT22;3638;48.820;9.244;2023-06-19T08:26:58;28.30;77.40
7194;DHT22;3638;48.820;9.244;2023-06-19T08:29:25;28.70;77.30
7194;DHT22;3638;48.820;9.244;2023-06-19T08:31:53;29.00;77.70
7194;DHT22;3638;48.820;9.244;2023-06-19T08:34:20;29.10;77.80
7194;DHT22;3638;48.820;9.244;2023-06-19T08:36:47;29.00;77.50
7194;DHT22;3638;48.820;9.244;2023-06-19T08:39:13;29.10;77.20
7194;DHT22;3638;48.820;9.244;2023-06-19T08:41:42;28.60;77.00
7194;DHT22;3638;48.820;9.244;2023-06-19T08:44:09;28.50;78.10
7194;DHT22;3638;48.820;9.244;2023-06-19T08:46:36;28.60;79.40
7194;DHT22;3638;48.820;9.244;2023-06-19T08:49:04;28.60;77.20
7194;DHT22;3638;48.820;9.244;2023-06-19T08:51:32;28.60;77.90
7194;DHT22;3638;48.820;9.244;2023-06-19T08:54:01;28.60;78.40
7194;DHT22;3638;48.820;9.244;2023-06-19T08:56:30;28.50;78.70
7194;DHT22;3638;48.820;9.244;2023-06-19T08:59:07;28.60;79.50
7194;DHT22;3638;48.820;9.244;2023-06-19T09:01:35;28.80;78.10
7194;DHT22;3638;48.820;9.244;2023-06-19T09:04:10;29.30;78.80
7194;DHT22;3638;48.820;9.244;2023-06-19T09:06:46;29.70;76.40
7194;DHT22;3638;48.820;9.244;2023-06-19T09:09:14;29.70;77.50
7194;DHT22;3638;48.820;9.244;2023-06-19T09:11:41;29.80;75.30
7194;DHT22;3638;48.820;9.244;2023-06-19T09:14:10;30.10;77.50
7194;DHT22;3638;48.820;9.244;2023-06-19T09:16:38;30.30;75.10
7194;DHT22;3638;48.820;9.244;2023-06-19T09:19:06;30.40;74.90
7194;DHT22;3638;48.820;9.244;2023-06-19T09:21:36;30.70;73.60
7194;DHT22;3638;48.820;9.244;2023-06-19T09:24:05;30.70;72.90
7194;DHT22;3638;48.820;9.244;2023-06-19T09:26:33;30.50;73.40
7194;DHT22;3638;48.820;9.244;2023-06-19T09:29:10;30.60;73.30
7194;DHT22;3638;48.820;9.244;2023-06-19T09:31:38;30.70;72.20
7194;DHT22;3638;48.820;9.244;2023-06-19T09:34:08;30.70;73.80
7194;DHT22;3638;48.820;9.244;2023-06-19T09:39:03;30.30;74.80
7194;DHT22;3638;48.820;9.244;2023-06-19T09:41:31;30.20;72.60
7194;DHT22;3638;48.820;9.244;2023-06-19T09:43:59;30.20;75.50
7194;DHT22;3638;48.820;9.244;2023-06-19T09:46:30;29.80;75.10
7194;DHT22;3638;48.820;9.244;2023-06-19T09:49:01;29.80;75.40
7194;DHT22;3638;48.820;9.244;2023-06-19T09:51:33;29.50;75.20
7194;DHT22;3638;48.820;9.244;2023-06-19T09:54:05;29.80;75.40
7194;DHT22;3638;48.820;9.244;2023-06-19T09:56:32;30.10;74.30
7194;DHT22;3638;48.820;9.244;2023-06-19T09:59:00;30.00;74.60
7194;DHT22;3638;48.820;9.244;2023-06-19T10:01:30;29.80;74.50
7194;DHT22;3638;48.820;9.244;2023-06-19T10:04:05;30.00;76.80
7194;DHT22;3638;48.820;9.244;2023-06-19T10:06:42;30.00;73.90
7194;DHT22;3638;48.820;9.244;2023-06-19T10:09:10;29.80;74.50
7194;DHT22;3638;48.820;9.244;2023-06-19T10:11:47;29.90;74.80
7194;DHT22;3638;48.820;9.244;2023-06-19T10:14:17;32.50;76.20
7194;DHT22;3638;48.820;9.244;2023-06-19T10:16:44;29.90;75.20
7194;DHT22;3638;48.820;9.244;2023-06-19T10:19:13;30.60;71.80
7194;DHT22;3638;48.820;9.244;2023-06-19T10:21:47;30.70;73.30
7194;DHT22;3638;48.820;9.244;2023-06-19T10:24:15;30.80;73.60
7194;DHT22;3638;48.820;9.244;2023-06-19T10:26:56;31.30;70.90
7194;DHT22;3638;48.820;9.244;2023-06-19T10:29:24;31.30;71.70
7194;DHT22;3638;48.820;9.244;2023-06-19T10:31:51;30.00;73.50
7194;DHT22;3638;48.820;9.244;2023-06-19T10:34:18;29.50;75.50
7194;DHT22;3638;48.820;9.244;2023-06-19T10:36:46;29.50;76.10
7194;DHT22;3638;48.820;9.244;2023-06-19T10:39:13;29.40;76.20
7194;DHT22;3638;48.820;9.244;2023-06-19T10:41:41;29.60;76.90
7194;DHT22;3638;48.820;9.244;2023-06-19T10:44:08;29.60;76.60
7194;DHT22;3638;48.820;9.244;2023-06-19T10:46:38;29.60;77.20
7194;DHT22;3638;48.820;9.244;2023-06-19T10:49:07;29.90;77.20
7194;DHT22;3638;48.820;9.244;2023-06-19T10:51:37;30.30;75.60
7194;DHT22;3638;48.820;9.244;2023-06-19T10:54:06;30.70;75.20
7194;DHT22;3638;48.820;9.244;2023-06-19T10:56:33;31.10;73.70
7194;DHT22;3638;48.820;9.244;2023-06-19T10:59:01;30.60;73.60
7194;DHT22;3638;48.820;9.244;2023-06-19T11:01:33;30.70;74.10
7194;DHT22;3638;48.820;9.244;2023-06-19T11:04:03;30.70;74.20
7194;DHT22;3638;48.820;9.244;2023-06-19T11:06:31;30.80;75.00
7194;DHT22;3638;48.820;9.244;2023-06-19T11:08:58;30.90;74.40
7194;DHT22;3638;48.820;9.244;2023-06-19T11:11:36;30.60;73.50
7194;DHT22;3638;48.820;9.244;2023-06-19T11:14:04;30.90;74.40
7194;DHT22;3638;48.820;9.244;2023-06-19T11:16:32;30.50;74.90
7194;DHT22;3638;48.820;9.244;2023-06-19T11:18:59;30.70;74.10
7194;DHT22;3638;48.820;9.244;2023-06-19T11:21:30;31.10;73.10
7194;DHT22;3638;48.820;9.244;2023-06-19T11:23:58;30.90;73.40
7194;DHT22;3638;48.820;9.244;2023-06-19T11:26:26;30.40;74.40
7194;DHT22;3638;48.820;9.244;2023-06-19T11:28:54;29.80;77.40
7194;DHT22;3638;48.820;9.244;2023-06-19T11:31:25;30.30;76.30
7194;DHT22;3638;48.820;9.244;2023-06-19T11:33:57;30.40;75.20
7194;DHT22;3638;48.820;9.244;2023-06-19T11:36:24;30.10;76.40
7194;DHT22;3638;48.820;9.244;2023-06-19T11:38:51;29.70;76.30
7194;DHT22;3638;48.820;9.244;2023-06-19T11:41:25;29.90;76.70
7194;DHT22;3638;48.820;9.244;2023-06-19T11:44:00;30.10;76.60
7194;DHT22;3638;48.820;9.244;2023-06-19T11:46:31;30.20;75.60
7194;DHT22;3638;48.820;9.244;2023-06-19T11:49:08;30.50;74.70
7194;DHT22;3638;48.820;9.244;2023-06-19T11:51:35;30.40;74.10
7194;DHT22;3638;48.820;9.244;2023-06-19T11:54:03;30.50;73.60
7194;DHT22;3638;48.820;9.244;2023-06-19T11:56:31;30.00;75.30
7194;DHT22;3638;48.820;9.244;2023-06-19T11:59:01;29.40;76.10
7194;DHT22;3638;48.820;9.244;2023-06-19T12:01:28;29.30;76.30
7194;DHT22;3638;48.820;9.244;2023-06-19T12:03:55;29.20;77.20
7194;DHT22;3638;48.820;9.244;2023-06-19T12:06:23;29.30;76.70
7194;DHT22;3638;48.820;9.244;2023-06-19T12:08:50;29.50;76.70
7194;DHT22;3638;48.820;9.244;2023-06-19T12:11:18;29.30;75.60
7194;DHT22;3638;48.820;9.244;2023-06-19T12:13:45;29.50;77.20
7194;DHT22;3638;48.820;9.244;2023-06-19T12:16:13;30.10;75.90
7194;DHT22;3638;48.820;9.244;2023-06-19T12:18:41;30.20;76.50
7194;DHT22;3638;48.820;9.244;2023-06-19T12:21:08;30.50;74.20
7194;DHT22;3638;48.820;9.244;2023-06-19T12:23:35;30.50;73.70
7194;DHT22;3638;48.820;9.244;2023-06-19T12:26:02;30.50;74.40
7194;DHT22;3638;48.820;9.244;2023-06-19T12:28:29;30.50;74.70
7194;DHT22;3638;48.820;9.244;2023-06-19T12:30:55;30.40;74.60
7194;DHT22;3638;48.820;9.244;2023-06-19T12:33:25;30.30;75.00
7194;DHT22;3638;48.820;9.244;2023-06-19T12:35:56;30.70;76.00
7194;DHT22;3638;48.820;9.244;2023-06-19T12:38:23;30.70;72.70
7194;DHT22;3638;48.820;9.244;2023-06-19T12:40:50;30.30;73.20
7194;DHT22;3638;48.820;9.244;2023-06-19T12:43:17;30.40;74.00
7194;DHT22;3638;48.820;9.244;2023-06-19T12:45:44;30.40;74.70
7194;DHT22;3638;48.820;9.244;2023-06-19T12:48:11;30.80;73.80
7194;DHT22;3638;48.820;9.244;2023-06-19T12:50:39;30.90;74.30
7194;DHT22;3638;48.820;9.244;2023-06-19T12:53:06;30.90;72.80
7194;DHT22;3638;48.820;9.244;2023-06-19T12:55:33;30.60;73.50
7194;DHT22;3638;48.820;9.244;2023-06-19T12:58:00;30.80;73.60
7194;DHT22;3638;48.820;9.244;2023-06-19T13:00:27;30.40;72.40
7194;DHT22;3638;48.820;9.244;2023-06-19T13:02:54;30.50;73.40
7194;DHT22;3638;48.820;9.244;2023-06-19T13:05:20;30.50;73.30
7194;DHT22;3638;48.820;9.244;2023-06-19T13:07:48;30.60;74.40
7194;DHT22;3638;48.820;9.244;2023-06-19T13:10:15;31.00;72.00
7194;DHT22;3638;48.820;9.244;2023-06-19T13:12:42;30.70;72.10
7194;DHT22;3638;48.820;9.244;2023-06-19T13:15:09;30.80;73.10
7194;DHT22;3638;48.820;9.244;2023-06-19T13:17:37;31.10;72.40
7194;DHT22;3638;48.820;9.244;2023-06-19T13:20:04;31.10;71.80
7194;DHT22;3638;48.820;9.244;2023-06-19T13:22:32;30.70;71.10
7194;DHT22;3638;48.820;9.244;2023-06-19T13:25:01;31.00;70.40
7194;DHT22;3638;48.820;9.244;2023-06-19T13:27:28;31.00;70.60
7194;DHT22;3638;48.820;9.244;2023-06-19T13:29:55;30.70;72.10
7194;DHT22;3638;48.820;9.244;2023-06-19T13:32:22;30.30;72.40
7194;DHT22;3638;48.820;9.244;2023-06-19T13:34:48;30.30;72.30
7194;DHT22;3638;48.820;9.244;2023-06-19T13:37:15;30.30;73.10
7194;DHT22;3638;48.820;9.244;2023-06-19T13:39:42;30.30;73.10
7194;DHT22;3638;48.820;9.244;2023-06-19T13:42:10;30.20;72.60
7194;DHT22;3638;48.820;9.244;2023-06-19T13:44:37;30.40;73.20
7194;DHT22;3638;48.820;9.244;2023-06-19T13:47:05;30.40;71.80
7194;DHT22;3638;48.820;9.244;2023-06-19T13:49:32;30.30;72.40
7194;DHT22;3638;48.820;9.244;2023-06-19T13:51:59;30.20;72.70
7194;DHT22;3638;48.820;9.244;2023-06-19T13:54:26;30.00;73.50
7194;DHT22;3638;48.820;9.244;2023-06-19T13:56:53;30.00;74.00
7194;DHT22;3638;48.820;9.244;2023-06-19T13:59:21;30.30;73.40
7194;DHT22;3638;48.820;9.244;2023-06-19T14:01:48;30.30;72.30
7194;DHT22;3638;48.820;9.244;2023-06-19T14:04:14;30.10;72.90
7194;DHT22;3638;48.820;9.244;2023-06-19T14:06:41;30.00;73.30
7194;DHT22;3638;48.820;9.244;2023-06-19T14:09:09;30.00;72.30
7194;DHT22;3638;48.820;9.244;2023-06-19T14:11:36;29.90;73.00
7194;DHT22;3638;48.820;9.244;2023-06-19T14:14:03;30.00;72.70
7194;DHT22;3638;48.820;9.244;2023-06-19T14:16:31;30.10;73.30
7194;DHT22;3638;48.820;9.244;2023-06-19T14:18:58;30.50;73.00
7194;DHT22;3638;48.820;9.244;2023-06-19T14:21:25;30.50;73.10
7194;DHT22;3638;48.820;9.244;2023-06-19T14:26:19;30.20;73.40
7194;DHT22;3638;48.820;9.244;2023-06-19T14:28:46;30.20;73.70
7194;DHT22;3638;48.820;9.244;2023-06-19T14:31:13;30.20;74.50
7194;DHT22;3638;48.820;9.244;2023-06-19T14:33:42;30.20;73.30
7194;DHT22;3638;48.820;9.244;2023-06-19T14:36:09;30.20;74.00
7194;DHT22;3638;48.820;9.244;2023-06-19T14:38:35;30.00;74.30
7194;DHT22;3638;48.820;9.244;2023-06-19T14:41:02;30.30;73.10
7194;DHT22;3638;48.820;9.244;2023-06-19T14:43:29;30.30;73.40
7194;DHT22;3638;48.820;9.244;2023-06-19T14:45:58;30.20;72.60
7194;DHT22;3638;48.820;9.244;2023-06-19T14:48:24;30.30;73.40
7194;DHT22;3638;48.820;9.244;2023-06-19T14:50:53;30.30;72.70
7194;DHT22;3638;48.820;9.244;2023-06-19T14:53:19;30.30;72.90
7194;DHT22;3638;48.820;9.244;2023-06-19T14:55:46;30.20;72.20
7194;DHT22;3638;48.820;9.244;2023-06-19T14:58:13;30.20;72.90
7194;DHT22;3638;48.820;9.244;2023-06-19T15:00:41;29.80;73.00
7194;DHT22;3638;48.820;9.244;2023-06-19T15:03:08;30.00;73.10
7194;DHT22;3638;48.820;9.244;2023-06-19T15:05:35;30.20;72.40
7194;DHT22;3638;48.820;9.244;2023-06-19T15:08:03;30.20;73.10
7194;DHT22;3638;48.820;9.244;2023-06-19T15:10:31;30.10;72.50
7194;DHT22;3638;48.820;9.244;2023-06-19T15:12:57;30.00;73.20
7194;DHT22;3638;48.820;9.244;2023-06-19T15:15:24;30.00;73.50
7194;DHT22;3638;48.820;9.244;2023-06-19T15:17:51;30.10;73.30
7194;DHT22;3638;48.820;9.244;2023-06-19T15:20:18;30.40;72.50
7194;DHT22;3638;48.820;9.244;2023-06-19T15:22:46;30.40;73.10
7194;DHT22;3638;48.820;9.244;2023-06-19T15:25:14;30.10;73.10
7194;DHT22;3638;48.820;9.244;2023-06-19T15:27:41;30.10;74.30
7194;DHT22;3638;48.820;9.244;2023-06-19T15:30:08;30.40;73.90
7194;DHT22;3638;48.820;9.244;2023-06-19T15:32:36;30.50;73.60
7194;DHT22;3638;48.820;9.244;2023-06-19T15:35:03;30.40;73.50
7194;DHT22;3638;48.820;9.244;2023-06-19T15:37:30;30.30;72.90
7194;DHT22;3638;48.820;9.244;2023-06-19T15:39:57;30.40;72.90
7194;DHT22;3638;48.820;9.244;2023-06-19T15:42:28;30.20;73.10
7194;DHT22;3638;48.820;9.244;2023-06-19T15:44:54;30.30;73.50
7194;DHT22;3638;48.820;9.244;2023-06-19T15:47:21;30.30;73.70
7194;DHT22;3638;48.820;9.244;2023-06-19T15:49:48;30.10;73.20
7194;DHT22;3638;48.820;9.244;2023-06-19T15:52:15;29.80;73.20
7194;DHT22;3638;48.820;9.244;2023-06-19T15:54:42;29.80;74.00
7194;DHT22;3638;48.820;9.244;2023-06-19T15:57:09;29.80;73.30
7194;DHT22;3638;48.820;9.244;2023-06-19T15:59:39;29.90;73.70
7194;DHT22;3638;48.820;9.244;2023-06-19T16:02:06;29.90;72.90
7194;DHT22;3638;48.820;9.244;2023-06-19T16:04:32;29.90;74.10
7194;DHT22;3638;48.820;9.244;2023-06-19T16:06:59;29.90;73.40
7194;DHT22;3638;48.820;9.244;2023-06-19T16:09:27;29.90;73.90
7194;DHT22;3638;48.820;9.244;2023-06-19T16:11:54;29.70;75.10
7194;DHT22;3638;48.820;9.244;2023-06-19T16:14:21;29.80;75.40
7194;DHT22;3638;48.820;9.244;2023-06-19T16:16:49;29.70;75.00
7194;DHT22;3638;48.820;9.244;2023-06-19T16:19:16;29.60;75.40
7194;DHT22;3638;48.820;9.244;2023-06-19T16:21:42;29.70;74.20
7194;DHT22;3638;48.820;9.244;2023-06-19T16:24:09;29.60;74.60
7194;DHT22;3638;48.820;9.244;2023-06-19T16:26:36;29.60;75.30
7194;DHT22;3638;48.820;9.244;2023-06-19T16:29:04;29.70;74.60
7194;DHT22;3638;48.820;9.244;2023-06-19T16:31:31;29.70;74.10
7194;DHT22;3638;48.820;9.244;2023-06-19T16:33:59;29.70;74.90
7194;DHT22;3638;48.820;9.244;2023-06-19T16:36:26;29.70;75.80
7194;DHT22;3638;48.820;9.244;2023-06-19T16:38:53;29.50;76.00
7194;DHT22;3638;48.820;9.244;2023-06-19T16:41:20;29.50;77.00
7194;DHT22;3638;48.820;9.244;2023-06-19T16:43:47;29.30;78.20
7194;DHT22;3638;48.820;9.244;2023-06-19T16:46:15;29.30;78.80
7194;DHT22;3638;48.820;9.244;2023-06-19T16:48:41;29.10;79.40
7194;DHT22;3638;48.820;9.244;2023-06-19T16:51:11;28.70;80.20